sensor_id;sensor_type;location;lat;lon;timestamp;temperature;humidity
52058;DHT22;38063;53.210;6.504;2023-02-10T00:02:23;0.30;99.90
52058;DHT22;38063;53.210;6.504;2023-02-10T00:04:49;0.30;99.90
52058;DHT22;38063;53.210;6.504;2023-02-10T00:07:19;0.40;99.90
52058;DHT22;38063;53.210;6.504;2023-02-10T00:09:45;0.40;99.90
52058;DHT22;38063;53.210;6.504;2023-02-10T00:12:11;0.40;99.90
52058;DHT22;38063;53.210;6.504;2023-02-10T00:14:37;0.30;99.90
52058;DHT22;38063;53.210;6.504;2023-02-10T00:17:04;0.30;99.90
52058;DHT22;38063;53.210;6.504;2023-02-10T00:19:30;0.30;99.90
52058;DHT22;38063;53.210;6.504;2023-02-10T00:21:59;0.30;99.90
52058;DHT22;38063;53.210;6.504;2023-02-10T00:24:26;0.30;99.90
52058;DHT22;38063;53.210;6.504;2023-02-10T00:26:52;0.30;99.90
52058;DHT22;38063;53.210;6.504;2023-02-10T00:29:18;0.30;99.90
52058;DHT22;38063;53.210;6.504;2023-02-10T00:31:43;0.20;99.90
52058;DHT22;38063;53.210;6.504;2023-02-10T00:34:14;0.20;99.90
52058;DHT22;38063;53.210;6.504;2023-02-10T00:36:40;0.20;99.90
52058;DHT22;38063;53.210;6.504;2023-02-10T00:39:07;0.10;99.90
52058;DHT22;38063;53.210;6.504;2023-02-10T00:41:37;0.20;99.90
52058;DHT22;38063;53.210;6.504;2023-02-10T00:44:03;0.20;99.90
52058;DHT22;38063;53.210;6.504;2023-02-10T00:46:29;0.20;99.90
52058;DHT22;38063;53.210;6.504;2023-02-10T00:48:54;0.20;99.90
52058;DHT22;38063;53.210;6.504;2023-02-10T00:51:20;0.20;99.90
52058;DHT22;38063;53.210;6.504;2023-02-10T00:53:46;0.30;99.90
52058;DHT22;38063;53.210;6.504;2023-02-10T00:56:16;0.30;99.90
52058;DHT22;38063;53.210;6.504;2023-02-10T00:58:42;0.30;99.90
52058;DHT22;38063;53.210;6.504;2023-02-10T01:01:08;0.30;99.90
52058;DHT22;38063;53.210;6.504;2023-02-10T01:03:34;0.40;99.90
52058;DHT22;38063;53.210;6.504;2023-02-10T01:05:59;0.40;99.90
52058;DHT22;38063;53.210;6.504;2023-02-10T01:08:25;0.40;99.90
52058;DHT22;38063;53.210;6.504;2023-02-10T01:11:01;0.40;99.90
52058;DHT22;38063;53.210;6.504;2023-02-10T01:13:28;0.40;99.90
52058;DHT22;38063;53.210;6.504;2023-02-10T01:15:53;0.40;99.90
52058;DHT22;38063;53.210;6.504;2023-02-10T01:18:19;0.40;99.90
52058;DHT22;38063;53.210;6.504;2023-02-10T01:20:45;0.50;99.90
52058;DHT22;38063;53.210;6.504;2023-02-10T01:23:11;0.40;99.90
52058;DHT22;38063;53.210;6.504;2023-02-10T01:25:37;0.50;99.90
52058;DHT22;38063;53.210;6.504;2023-02-10T01:28:04;0.40;99.90
52058;DHT22;38063;53.210;6.504;2023-02-10T01:30:29;0.40;99.90
52058;DHT22;38063;53.210;6.504;2023-02-10T01:32:55;0.40;99.90
52058;DHT22;38063;53.210;6.504;2023-02-10T01:35:21;0.40;99.90
52058;DHT22;38063;53.210;6.504;2023-02-10T01:37:47;0.40;99.90
52058;DHT22;38063;53.210;6.504;2023-02-10T01:40:13;0.40;99.90
52058;DHT22;38063;53.210;6.504;2023-02-10T01:42:39;0.50;99.90
52058;DHT22;38063;53.210;6.504;2023-02-10T01:45:19;0.40;99.90
52058;DHT22;38063;53.210;6.504;2023-02-10T01:47:46;0.40;99.90
52058;DHT22;38063;53.210;6.504;2023-02-10T01:50:13;0.40;99.90
52058;DHT22;38063;53.210;6.504;2023-02-10T01:52:40;0.50;99.90
52058;DHT22;38063;53.210;6.504;2023-02-10T01:55:12;0.50;99.90
52058;DHT22;38063;53.210;6.504;2023-02-10T01:57:42;0.50;99.90
52058;DHT22;38063;53.210;6.504;2023-02-10T02:00:09;0.50;99.90
52058;DHT22;38063;53.210;6.504;2023-02-10T02:02:35;0.60;99.90
52058;DHT22;38063;53.210;6.504;2023-02-10T02:05:05;0.50;99.90
52058;DHT22;38063;53.210;6.504;2023-02-10T02:07:36;0.50;99.90
52058;DHT22;38063;53.210;6.504;2023-02-10T02:10:04;0.50;99.90
52058;DHT22;38063;53.210;6.504;2023-02-10T02:15:39;0.50;99.90
52058;DHT22;38063;53.210;6.504;2023-02-10T02:18:15;0.50;99.90
52058;DHT22;38063;53.210;6.504;2023-02-10T02:23:59;0.50;99.90
52058;DHT22;38063;53.210;6.504;2023-02-10T02:32:21;0.50;99.90
52058;DHT22;38063;53.210;6.504;2023-02-10T02:34:56;0.50;99.90
52058;DHT22;38063;53.210;6.504;2023-02-10T02:37:37;0.40;99.90
52058;DHT22;38063;53.210;6.504;2023-02-10T02:40:04;0.40;99.90
52058;DHT22;38063;53.210;6.504;2023-02-10T02:42:32;0.50;99.90
52058;DHT22;38063;53.210;6.504;2023-02-10T02:45:06;0.40;99.90
52058;DHT22;38063;53.210;6.504;2023-02-10T02:51:04;0.30;99.90
52058;DHT22;38063;53.210;6.504;2023-02-10T02:53:44;0.30;99.90
52058;DHT22;38063;53.210;6.504;2023-02-10T02:56:43;0.30;99.90
52058;DHT22;38063;53.210;6.504;2023-02-10T02:59:24;0.20;99.90
52058;DHT22;38063;53.210;6.504;2023-02-10T03:02:01;0.20;99.90
52058;DHT22;38063;53.210;6.504;2023-02-10T03:04:31;0.20;99.90
52058;DHT22;38063;53.210;6.504;2023-02-10T03:06:59;0.20;99.90
52058;DHT22;38063;53.210;6.504;2023-02-10T03:09:25;2.00;99.90
52058;DHT22;38063;53.210;6.504;2023-02-10T03:11:51;0.20;99.90
52058;DHT22;38063;53.210;6.504;2023-02-10T03:14:16;0.20;99.90
52058;DHT22;38063;53.210;6.504;2023-02-10T03:16:42;0.10;99.90
52058;DHT22;38063;53.210;6.504;2023-02-10T03:19:07;0.10;99.90
52058;DHT22;38063;53.210;6.504;2023-02-10T03:21:33;0.10;99.90
52058;DHT22;38063;53.210;6.504;2023-02-10T03:23:59;0.00;99.90
52058;DHT22;38063;53.210;6.504;2023-02-10T03:26:27;0.00;99.90
52058;DHT22;38063;53.210;6.504;2023-02-10T03:28:53;0.00;99.90
52058;DHT22;38063;53.210;6.504;2023-02-10T03:31:19;0.00;99.90
52058;DHT22;38063;53.210;6.504;2023-02-10T03:33:45;0.00;99.90
52058;DHT22;38063;53.210;6.504;2023-02-10T03:36:10;0.00;99.90
52058;DHT22;38063;53.210;6.504;2023-02-10T03:38:36;0.10;99.90
52058;DHT22;38063;53.210;6.504;2023-02-10T03:41:02;0.10;99.90
52058;DHT22;38063;53.210;6.504;2023-02-10T03:43:28;0.10;99.90
52058;DHT22;38063;53.210;6.504;2023-02-10T03:45:53;0.00;99.90
52058;DHT22;38063;53.210;6.504;2023-02-10T03:48:19;0.00;99.90
52058;DHT22;38063;53.210;6.504;2023-02-10T03:50:45;0.00;99.90
52058;DHT22;38063;53.210;6.504;2023-02-10T03:53:10;0.00;99.90
52058;DHT22;38063;53.210;6.504;2023-02-10T03:55:36;-0.10;99.90
52058;DHT22;38063;53.210;6.504;2023-02-10T03:58:02;-0.10;99.90
52058;DHT22;38063;53.210;6.504;2023-02-10T04:00:29;-0.10;99.90
52058;DHT22;38063;53.210;6.504;2023-02-10T04:02:55;-0.10;99.90
52058;DHT22;38063;53.210;6.504;2023-02-10T04:05:21;-0.10;99.90
52058;DHT22;38063;53.210;6.504;2023-02-10T04:07:47;-0.10;99.90
52058;DHT22;38063;53.210;6.504;2023-02-10T04:10:13;0.00;99.90
52058;DHT22;38063;53.210;6.504;2023-02-10T04:12:38;0.00;99.90
52058;DHT22;38063;53.210;6.504;2023-02-10T04:15:05;0.00;99.90
52058;DHT22;38063;53.210;6.504;2023-02-10T04:17:32;0.00;99.90
52058;DHT22;38063;53.210;6.504;2023-02-10T04:19:57;0.00;99.90
52058;DHT22;38063;53.210;6.504;2023-02-10T04:22:23;0.00;99.90
52058;DHT22;38063;53.210;6.504;2023-02-10T04:24:49;0.10;99.90
52058;DHT22;38063;53.210;6.504;2023-02-10T04:27:14;-0.20;99.90
52058;DHT22;38063;53.210;6.504;2023-02-10T04:29:40;0.10;99.90
52058;DHT22;38063;53.210;6.504;2023-02-10T04:32:07;0.20;99.90
52058;DHT22;38063;53.210;6.504;2023-02-10T04:34:33;0.30;99.90
52058;DHT22;38063;53.210;6.504;2023-02-10T04:36:59;0.30;99.90
52058;DHT22;38063;53.210;6.504;2023-02-10T04:39:25;0.30;99.90
52058;DHT22;38063;53.210;6.504;2023-02-10T04:41:51;0.30;99.90
52058;DHT22;38063;53.210;6.504;2023-02-10T04:44:17;0.30;99.90
52058;DHT22;38063;53.210;6.504;2023-02-10T04:46:45;0.40;99.90
52058;DHT22;38063;53.210;6.504;2023-02-10T04:49:11;0.40;99.90
52058;DHT22;38063;53.210;6.504;2023-02-10T04:51:36;0.40;99.90
52058;DHT22;38063;53.210;6.504;2023-02-10T04:54:02;0.50;99.90
52058;DHT22;38063;53.210;6.504;2023-02-10T04:56:28;0.50;99.90
52058;DHT22;38063;53.210;6.504;2023-02-10T04:58:53;0.50;99.90
52058;DHT22;38063;53.210;6.504;2023-02-10T05:01:19;0.60;99.90
52058;DHT22;38063;53.210;6.504;2023-02-10T05:03:44;0.60;99.90
52058;DHT22;38063;53.210;6.504;2023-02-10T05:06:14;0.60;99.90
52058;DHT22;38063;53.210;6.504;2023-02-10T05:08:40;0.60;99.90
52058;DHT22;38063;53.210;6.504;2023-02-10T05:11:11;0.60;99.90
52058;DHT22;38063;53.210;6.504;2023-02-10T05:13:37;0.60;99.90
52058;DHT22;38063;53.210;6.504;2023-02-10T05:16:04;0.60;99.90
52058;DHT22;38063;53.210;6.504;2023-02-10T05:18:31;0.50;99.90
52058;DHT22;38063;53.210;6.504;2023-02-10T05:20:57;0.60;99.90
52058;DHT22;38063;53.210;6.504;2023-02-10T05:23:23;0.60;99.90
52058;DHT22;38063;53.210;6.504;2023-02-10T05:25:49;0.60;99.90
52058;DHT22;38063;53.210;6.504;2023-02-10T05:28:15;0.60;99.90
52058;DHT22;38063;53.210;6.504;2023-02-10T05:30:40;0.60;99.90
52058;DHT22;38063;53.210;6.504;2023-02-10T05:33:06;0.60;99.90
52058;DHT22;38063;53.210;6.504;2023-02-10T05:35:31;0.50;99.90
52058;DHT22;38063;53.210;6.504;2023-02-10T05:37:57;0.60;99.90
52058;DHT22;38063;53.210;6.504;2023-02-10T05:40:23;0.60;99.90
52058;DHT22;38063;53.210;6.504;2023-02-10T05:42:49;0.60;99.90
52058;DHT22;38063;53.210;6.504;2023-02-10T05:45:15;0.60;99.90
52058;DHT22;38063;53.210;6.504;2023-02-10T05:47:41;0.70;99.90
52058;DHT22;38063;53.210;6.504;2023-02-10T05:50:07;0.70;99.90
52058;DHT22;38063;53.210;6.504;2023-02-10T05:52:33;0.70;99.90
52058;DHT22;38063;53.210;6.504;2023-02-10T05:54:59;0.70;99.90
52058;DHT22;38063;53.210;6.504;2023-02-10T05:57:25;0.70;99.90
52058;DHT22;38063;53.210;6.504;2023-02-10T05:59:50;0.70;99.90
52058;DHT22;38063;53.210;6.504;2023-02-10T06:02:16;0.80;99.90
52058;DHT22;38063;53.210;6.504;2023-02-10T06:04:42;0.90;99.90
52058;DHT22;38063;53.210;6.504;2023-02-10T06:07:07;0.90;99.90
52058;DHT22;38063;53.210;6.504;2023-02-10T06:09:33;0.90;99.90
52058;DHT22;38063;53.210;6.504;2023-02-10T06:11:59;1.00;99.90
52058;DHT22;38063;53.210;6.504;2023-02-10T06:14:24;1.00;99.90
52058;DHT22;38063;53.210;6.504;2023-02-10T06:16:50;1.00;99.90
52058;DHT22;38063;53.210;6.504;2023-02-10T06:19:16;1.00;99.90
52058;DHT22;38063;53.210;6.504;2023-02-10T06:21:42;1.00;99.90
52058;DHT22;38063;53.210;6.504;2023-02-10T06:24:07;1.10;99.90
52058;DHT22;38063;53.210;6.504;2023-02-10T06:26:33;1.10;99.90
52058;DHT22;38063;53.210;6.504;2023-02-10T06:28:58;1.10;99.90
52058;DHT22;38063;53.210;6.504;2023-02-10T06:31:24;1.10;99.90
52058;DHT22;38063;53.210;6.504;2023-02-10T06:33:50;1.20;99.90
52058;DHT22;38063;53.210;6.504;2023-02-10T06:36:16;1.10;99.90
52058;DHT22;38063;53.210;6.504;2023-02-10T06:38:42;1.20;99.90
52058;DHT22;38063;53.210;6.504;2023-02-10T06:41:07;1.20;99.90
52058;DHT22;38063;53.210;6.504;2023-02-10T06:43:33;1.20;99.90
52058;DHT22;38063;53.210;6.504;2023-02-10T06:45:59;1.20;99.90
52058;DHT22;38063;53.210;6.504;2023-02-10T06:48:24;1.30;99.90
52058;DHT22;38063;53.210;6.504;2023-02-10T06:50:51;1.30;99.90
52058;DHT22;38063;53.210;6.504;2023-02-10T06:53:18;1.20;99.90
52058;DHT22;38063;53.210;6.504;2023-02-10T06:55:43;1.90;99.90
52058;DHT22;38063;53.210;6.504;2023-02-10T06:58:09;1.30;99.90
52058;DHT22;38063;53.210;6.504;2023-02-10T07:00:35;1.30;99.90
52058;DHT22;38063;53.210;6.504;2023-02-10T07:03:01;1.40;99.90
52058;DHT22;38063;53.210;6.504;2023-02-10T07:05:27;1.40;99.90
52058;DHT22;38063;53.210;6.504;2023-02-10T07:07:53;1.40;99.90
52058;DHT22;38063;53.210;6.504;2023-02-10T07:10:19;1.50;99.90
52058;DHT22;38063;53.210;6.504;2023-02-10T07:12:45;1.50;99.90
52058;DHT22;38063;53.210;6.504;2023-02-10T07:15:14;1.50;99.90
52058;DHT22;38063;53.210;6.504;2023-02-10T07:17:40;1.50;99.90
52058;DHT22;38063;53.210;6.504;2023-02-10T07:20:07;1.50;99.90
52058;DHT22;38063;53.210;6.504;2023-02-10T07:22:33;1.60;99.90
52058;DHT22;38063;53.210;6.504;2023-02-10T07:24:59;1.60;99.90
52058;DHT22;38063;53.210;6.504;2023-02-10T07:27:24;1.60;99.90
52058;DHT22;38063;53.210;6.504;2023-02-10T07:29:50;1.70;99.90
52058;DHT22;38063;53.210;6.504;2023-02-10T07:32:16;1.70;99.90
52058;DHT22;38063;53.210;6.504;2023-02-10T07:34:41;1.70;99.90
52058;DHT22;38063;53.210;6.504;2023-02-10T07:37:08;1.80;99.90
52058;DHT22;38063;53.210;6.504;2023-02-10T07:39:33;1.80;99.90
52058;DHT22;38063;53.210;6.504;2023-02-10T07:41:59;1.80;99.90
52058;DHT22;38063;53.210;6.504;2023-02-10T07:44:24;1.80;99.90
52058;DHT22;38063;53.210;6.504;2023-02-10T07:46:53;1.90;99.90
52058;DHT22;38063;53.210;6.504;2023-02-10T07:49:19;2.40;99.90
52058;DHT22;38063;53.210;6.504;2023-02-10T07:51:45;1.90;99.90
52058;DHT22;38063;53.210;6.504;2023-02-10T07:54:11;1.90;99.90
52058;DHT22;38063;53.210;6.504;2023-02-10T07:56:36;2.00;99.90
52058;DHT22;38063;53.210;6.504;2023-02-10T07:59:02;2.00;99.90
52058;DHT22;38063;53.210;6.504;2023-02-10T08:01:28;2.00;99.90
52058;DHT22;38063;53.210;6.504;2023-02-10T08:03:53;2.10;99.90
52058;DHT22;38063;53.210;6.504;2023-02-10T08:06:24;2.10;99.90
52058;DHT22;38063;53.210;6.504;2023-02-10T08:08:50;2.20;99.90
52058;DHT22;38063;53.210;6.504;2023-02-10T08:11:16;2.20;99.90
52058;DHT22;38063;53.210;6.504;2023-02-10T08:13:43;2.30;99.90
52058;DHT22;38063;53.210;6.504;2023-02-10T08:16:09;2.30;99.90
52058;DHT22;38063;53.210;6.504;2023-02-10T08:18:38;2.30;99.90
52058;DHT22;38063;53.210;6.504;2023-02-10T08:21:04;2.40;99.90
52058;DHT22;38063;53.210;6.504;2023-02-10T08:23:30;2.40;99.90
52058;DHT22;38063;53.210;6.504;2023-02-10T08:25:56;2.40;99.90
52058;DHT22;38063;53.210;6.504;2023-02-10T08:28:22;2.50;99.90
52058;DHT22;38063;53.210;6.504;2023-02-10T08:30:48;2.40;99.90
52058;DHT22;38063;53.210;6.504;2023-02-10T08:33:14;2.50;99.90
52058;DHT22;38063;53.210;6.504;2023-02-10T08:35:41;2.50;99.90
52058;DHT22;38063;53.210;6.504;2023-02-10T08:38:07;2.50;99.90
52058;DHT22;38063;53.210;6.504;2023-02-10T08:40:35;2.70;99.90
52058;DHT22;38063;53.210;6.504;2023-02-10T08:43:01;2.60;99.90
52058;DHT22;38063;53.210;6.504;2023-02-10T08:45:27;2.70;99.90
52058;DHT22;38063;53.210;6.504;2023-02-10T08:47:53;2.70;99.90
52058;DHT22;38063;53.210;6.504;2023-02-10T08:50:19;2.70;99.90
52058;DHT22;38063;53.210;6.504;2023-02-10T08:52:44;2.80;99.90
52058;DHT22;38063;53.210;6.504;2023-02-10T08:55:11;2.80;99.90
52058;DHT22;38063;53.210;6.504;2023-02-10T08:57:37;2.80;99.90
52058;DHT22;38063;53.210;6.504;2023-02-10T09:00:05;2.80;99.90
52058;DHT22;38063;53.210;6.504;2023-02-10T09:02:31;2.90;99.90
52058;DHT22;38063;53.210;6.504;2023-02-10T09:04:57;2.90;99.90
52058;DHT22;38063;53.210;6.504;2023-02-10T09:07:22;2.90;99.90
52058;DHT22;38063;53.210;6.504;2023-02-10T09:09:48;3.00;99.90
52058;DHT22;38063;53.210;6.504;2023-02-10T09:12:14;3.00;99.90
52058;DHT22;38063;53.210;6.504;2023-02-10T09:14:40;3.00;99.90
52058;DHT22;38063;53.210;6.504;2023-02-10T09:17:07;3.00;99.90
52058;DHT22;38063;53.210;6.504;2023-02-10T09:19:36;3.00;99.90
52058;DHT22;38063;53.210;6.504;2023-02-10T09:22:06;3.50;99.90
52058;DHT22;38063;53.210;6.504;2023-02-10T09:24:32;3.00;99.90
52058;DHT22;38063;53.210;6.504;2023-02-10T09:27:00;3.00;99.90
52058;DHT22;38063;53.210;6.504;2023-02-10T09:29:26;3.00;99.90
52058;DHT22;38063;53.210;6.504;2023-02-10T09:31:52;3.10;99.90
52058;DHT22;38063;53.210;6.504;2023-02-10T09:34:17;3.10;99.90
52058;DHT22;38063;53.210;6.504;2023-02-10T09:36:43;3.20;99.90
52058;DHT22;38063;53.210;6.504;2023-02-10T09:39:09;3.20;99.90
52058;DHT22;38063;53.210;6.504;2023-02-10T09:49:43;3.70;99.90
52058;DHT22;38063;53.210;6.504;2023-02-10T09:54:49;3.90;99.90
52058;DHT22;38063;53.210;6.504;2023-02-10T09:57:37;3.90;99.90
52058;DHT22;38063;53.210;6.504;2023-02-10T10:00:04;3.90;99.90
52058;DHT22;38063;53.210;6.504;2023-02-10T10:02:34;4.00;99.90
52058;DHT22;38063;53.210;6.504;2023-02-10T10:05:19;4.10;99.90
52058;DHT22;38063;53.210;6.504;2023-02-10T10:07:49;4.00;99.90
52058;DHT22;38063;53.210;6.504;2023-02-10T10:10:35;4.10;99.90
52058;DHT22;38063;53.210;6.504;2023-02-10T10:13:17;4.10;99.90
52058;DHT22;38063;53.210;6.504;2023-02-10T10:15:55;4.20;99.90
52058;DHT22;38063;53.210;6.504;2023-02-10T10:18:43;4.20;99.90
52058;DHT22;38063;53.210;6.504;2023-02-10T10:22:00;4.30;99.90
52058;DHT22;38063;53.210;6.504;2023-02-10T10:24:36;4.30;99.90
52058;DHT22;38063;53.210;6.504;2023-02-10T10:27:17;4.40;99.90
52058;DHT22;38063;53.210;6.504;2023-02-10T10:29:57;4.50;99.90
52058;DHT22;38063;53.210;6.504;2023-02-10T10:32:38;4.50;99.90
52058;DHT22;38063;53.210;6.504;2023-02-10T10:35:14;4.50;99.90
52058;DHT22;38063;53.210;6.504;2023-02-10T10:37:40;4.60;99.90
52058;DHT22;38063;53.210;6.504;2023-02-10T10:40:07;4.70;99.90
52058;DHT22;38063;53.210;6.504;2023-02-10T10:42:44;4.70;99.90
52058;DHT22;38063;53.210;6.504;2023-02-10T10:45:45;4.70;99.90
52058;DHT22;38063;53.210;6.504;2023-02-10T10:50:43;4.80;99.90
52058;DHT22;38063;53.210;6.504;2023-02-10T10:53:24;4.90;99.90
52058;DHT22;38063;53.210;6.504;2023-02-10T10:56:01;5.00;99.90
52058;DHT22;38063;53.210;6.504;2023-02-10T10:58:31;5.10;99.90
52058;DHT22;38063;53.210;6.504;2023-02-10T11:01:01;5.10;99.90
52058;DHT22;38063;53.210;6.504;2023-02-10T11:03:28;5.10;99.90
52058;DHT22;38063;53.210;6.504;2023-02-10T11:06:10;5.20;99.90
52058;DHT22;38063;53.210;6.504;2023-02-10T11:08:51;5.20;99.90
52058;DHT22;38063;53.210;6.504;2023-02-10T11:11:17;5.30;99.90
52058;DHT22;38063;53.210;6.504;2023-02-10T11:13:53;5.40;99.90
52058;DHT22;38063;53.210;6.504;2023-02-10T11:16:20;5.50;99.90
52058;DHT22;38063;53.210;6.504;2023-02-10T11:18:57;6.40;99.90
52058;DHT22;38063;53.210;6.504;2023-02-10T11:21:34;5.70;99.90
52058;DHT22;38063;53.210;6.504;2023-02-10T11:24:00;5.80;99.90
52058;DHT22;38063;53.210;6.504;2023-02-10T11:26:27;5.80;99.90
52058;DHT22;38063;53.210;6.504;2023-02-10T11:28:53;5.90;99.90
52058;DHT22;38063;53.210;6.504;2023-02-10T11:31:28;6.20;99.90
52058;DHT22;38063;53.210;6.504;2023-02-10T11:34:01;6.00;99.90
52058;DHT22;38063;53.210;6.504;2023-02-10T11:36:38;6.10;99.90
52058;DHT22;38063;53.210;6.504;2023-02-10T11:39:37;6.50;99.90
52058;DHT22;38063;53.210;6.504;2023-02-10T11:42:17;6.30;99.90
52058;DHT22;38063;53.210;6.504;2023-02-10T11:47:26;6.50;99.90
52058;DHT22;38063;53.210;6.504;2023-02-10T11:49:52;6.60;99.90
52058;DHT22;38063;53.210;6.504;2023-02-10T11:52:19;6.60;99.90
52058;DHT22;38063;53.210;6.504;2023-02-10T11:54:47;6.60;99.90
52058;DHT22;38063;53.210;6.504;2023-02-10T12:05:38;6.90;99.90
52058;DHT22;38063;53.210;6.504;2023-02-10T12:10:55;7.00;99.90
52058;DHT22;38063;53.210;6.504;2023-02-10T12:13:36;7.00;99.90
52058;DHT22;38063;53.210;6.504;2023-02-10T12:18:54;7.20;99.90
52058;DHT22;38063;53.210;6.504;2023-02-10T12:30:33;7.40;99.90
52058;DHT22;38063;53.210;6.504;2023-02-10T12:35:55;7.40;99.90
52058;DHT22;38063;53.210;6.504;2023-02-10T12:38:40;7.40;99.90
52058;DHT22;38063;53.210;6.504;2023-02-10T12:41:38;7.40;99.90
52058;DHT22;38063;53.210;6.504;2023-02-10T12:49:30;7.50;99.90
52058;DHT22;38063;53.210;6.504;2023-02-10T12:52:23;7.50;99.90
52058;DHT22;38063;53.210;6.504;2023-02-10T12:55:11;7.50;99.90
52058;DHT22;38063;53.210;6.504;2023-02-10T12:57:45;7.50;99.90
52058;DHT22;38063;53.210;6.504;2023-02-10T13:00:14;7.50;99.90
52058;DHT22;38063;53.210;6.504;2023-02-10T13:06:29;7.50;99.90
52058;DHT22;38063;53.210;6.504;2023-02-10T13:08:41;7.50;99.90
52058;DHT22;38063;53.210;6.504;2023-02-10T13:11:17;7.50;99.90
52058;DHT22;38063;53.210;6.504;2023-02-10T13:13:46;7.40;99.90
52058;DHT22;38063;53.210;6.504;2023-02-10T13:16:18;7.40;99.90
52058;DHT22;38063;53.210;6.504;2023-02-10T13:18:53;7.40;99.90
52058;DHT22;38063;53.210;6.504;2023-02-10T13:21:51;7.30;99.90
52058;DHT22;38063;53.210;6.504;2023-02-10T13:24:22;7.30;99.90
52058;DHT22;38063;53.210;6.504;2023-02-10T13:34:48;7.30;99.90
52058;DHT22;38063;53.210;6.504;2023-02-10T13:37:37;7.20;99.90
52058;DHT22;38063;53.210;6.504;2023-02-10T13:42:56;7.80;99.90
52058;DHT22;38063;53.210;6.504;2023-02-10T13:45:33;7.30;99.90
52058;DHT22;38063;53.210;6.504;2023-02-10T13:48:03;7.40;99.90
52058;DHT22;38063;53.210;6.504;2023-02-10T13:50:46;7.40;99.90
52058;DHT22;38063;53.210;6.504;2023-02-10T13:58:50;7.40;99.90
52058;DHT22;38063;53.210;6.504;2023-02-10T14:04:04;7.40;99.90
52058;DHT22;38063;53.210;6.504;2023-02-10T14:06:39;7.40;99.90
52058;DHT22;38063;53.210;6.504;2023-02-10T14:11:51;7.40;99.90
52058;DHT22;38063;53.210;6.504;2023-02-10T14:14:29;7.50;99.90
52058;DHT22;38063;53.210;6.504;2023-02-10T14:19:41;7.50;99.90
52058;DHT22;38063;53.210;6.504;2023-02-10T14:22:25;7.60;99.90
52058;DHT22;38063;53.210;6.504;2023-02-10T14:24:52;7.50;99.90
52058;DHT22;38063;53.210;6.504;2023-02-10T14:27:20;7.40;99.90
52058;DHT22;38063;53.210;6.504;2023-02-10T14:29:55;7.40;99.90
52058;DHT22;38063;53.210;6.504;2023-02-10T14:32:22;7.40;99.90
52058;DHT22;38063;53.210;6.504;2023-02-10T14:34:57;7.40;99.90
52058;DHT22;38063;53.210;6.504;2023-02-10T14:37:23;7.40;99.90
52058;DHT22;38063;53.210;6.504;2023-02-10T14:39:54;7.40;99.90
52058;DHT22;38063;53.210;6.504;2023-02-10T14:42:21;7.30;99.90
52058;DHT22;38063;53.210;6.504;2023-02-10T14:44:53;7.30;99.90
52058;DHT22;38063;53.210;6.504;2023-02-10T14:47:32;7.30;99.90
52058;DHT22;38063;53.210;6.504;2023-02-10T14:49:58;7.20;99.90
52058;DHT22;38063;53.210;6.504;2023-02-10T14:54:54;7.20;99.90
52058;DHT22;38063;53.210;6.504;2023-02-10T14:57:22;7.30;99.90
52058;DHT22;38063;53.210;6.504;2023-02-10T14:59:55;7.20;99.90
52058;DHT22;38063;53.210;6.504;2023-02-10T15:02:24;7.20;99.90
52058;DHT22;38063;53.210;6.504;2023-02-10T15:04:53;7.20;99.90
52058;DHT22;38063;53.210;6.504;2023-02-10T15:07:47;7.40;99.90
52058;DHT22;38063;53.210;6.504;2023-02-10T15:10:30;7.10;99.90
52058;DHT22;38063;53.210;6.504;2023-02-10T15:12:59;7.10;99.90
52058;DHT22;38063;53.210;6.504;2023-02-10T15:15:32;7.00;99.90
52058;DHT22;38063;53.210;6.504;2023-02-10T15:18:12;6.90;99.90
52058;DHT22;38063;53.210;6.504;2023-02-10T15:20:39;6.80;99.90
52058;DHT22;38063;53.210;6.504;2023-02-10T15:23:13;6.80;99.90
52058;DHT22;38063;53.210;6.504;2023-02-10T15:25:39;6.70;99.90
52058;DHT22;38063;53.210;6.504;2023-02-10T15:33:32;6.80;99.90
52058;DHT22;38063;53.210;6.504;2023-02-10T15:46:42;6.60;99.90
52058;DHT22;38063;53.210;6.504;2023-02-10T15:49:11;6.50;99.90
52058;DHT22;38063;53.210;6.504;2023-02-10T15:51:41;6.40;99.90
52058;DHT22;38063;53.210;6.504;2023-02-10T15:54:11;6.50;99.90
52058;DHT22;38063;53.210;6.504;2023-02-10T15:56:37;6.30;99.90
52058;DHT22;38063;53.210;6.504;2023-02-10T15:59:11;6.30;99.90
52058;DHT22;38063;53.210;6.504;2023-02-10T16:01:38;6.20;99.90
52058;DHT22;38063;53.210;6.504;2023-02-10T16:04:03;6.20;99.90
52058;DHT22;38063;53.210;6.504;2023-02-10T16:06:29;6.10;99.90
52058;DHT22;38063;53.210;6.504;2023-02-10T16:08:54;6.00;99.90
52058;DHT22;38063;53.210;6.504;2023-02-10T16:11:20;6.00;99.90
52058;DHT22;38063;53.210;6.504;2023-02-10T16:13:46;6.00;99.90
52058;DHT22;38063;53.210;6.504;2023-02-10T16:16:14;6.00;99.90
52058;DHT22;38063;53.210;6.504;2023-02-10T16:18:41;5.90;99.90
52058;DHT22;38063;53.210;6.504;2023-02-10T16:21:09;6.00;99.90
52058;DHT22;38063;53.210;6.504;2023-02-10T16:23:36;6.00;99.90
52058;DHT22;38063;53.210;6.504;2023-02-10T16:26:02;6.00;99.90
52058;DHT22;38063;53.210;6.504;2023-02-10T16:28:27;6.00;99.90
52058;DHT22;38063;53.210;6.504;2023-02-10T16:30:53;5.90;99.90
52058;DHT22;38063;53.210;6.504;2023-02-10T16:33:19;6.00;99.90
52058;DHT22;38063;53.210;6.504;2023-02-10T16:35:44;5.90;99.90
52058;DHT22;38063;53.210;6.504;2023-02-10T16:38:10;5.90;99.90
52058;DHT22;38063;53.210;6.504;2023-02-10T16:40:37;5.80;99.90
52058;DHT22;38063;53.210;6.504;2023-02-10T16:43:05;5.80;99.90
52058;DHT22;38063;53.210;6.504;2023-02-10T16:45:33;5.80;99.90
52058;DHT22;38063;53.210;6.504;2023-02-10T16:47:59;5.70;99.90
52058;DHT22;38063;53.210;6.504;2023-02-10T16:50:44;5.70;99.90
52058;DHT22;38063;53.210;6.504;2023-02-10T16:53:11;5.60;99.90
52058;DHT22;38063;53.210;6.504;2023-02-10T16:55:38;5.60;99.90
52058;DHT22;38063;53.210;6.504;2023-02-10T16:58:05;5.50;99.90
52058;DHT22;38063;53.210;6.504;2023-02-10T17:00:31;5.40;99.90
52058;DHT22;38063;53.210;6.504;2023-02-10T17:02:57;5.40;99.90
52058;DHT22;38063;53.210;6.504;2023-02-10T17:05:22;5.40;99.90
52058;DHT22;38063;53.210;6.504;2023-02-10T17:07:49;5.30;99.90
52058;DHT22;38063;53.210;6.504;2023-02-10T17:10:18;5.30;99.90
52058;DHT22;38063;53.210;6.504;2023-02-10T17:12:43;5.30;99.90
52058;DHT22;38063;53.210;6.504;2023-02-10T17:15:09;5.30;99.90
52058;DHT22;38063;53.210;6.504;2023-02-10T17:17:35;5.30;99.90
52058;DHT22;38063;53.210;6.504;2023-02-10T17:20:02;5.30;99.90
52058;DHT22;38063;53.210;6.504;2023-02-10T17:22:28;5.30;99.90
52058;DHT22;38063;53.210;6.504;2023-02-10T17:24:54;5.30;99.90
52058;DHT22;38063;53.210;6.504;2023-02-10T17:27:19;5.30;99.90
52058;DHT22;38063;53.210;6.504;2023-02-10T17:29:45;5.40;99.90
52058;DHT22;38063;53.210;6.504;2023-02-10T17:32:11;5.40;99.90
52058;DHT22;38063;53.210;6.504;2023-02-10T17:34:36;5.40;99.90
52058;DHT22;38063;53.210;6.504;2023-02-10T17:37:03;5.40;99.90
52058;DHT22;38063;53.210;6.504;2023-02-10T17:39:31;5.70;99.90
52058;DHT22;38063;53.210;6.504;2023-02-10T17:41:59;5.50;99.90
52058;DHT22;38063;53.210;6.504;2023-02-10T17:44:25;5.50;99.90
52058;DHT22;38063;53.210;6.504;2023-02-10T17:46:51;5.50;99.90